createdAt,value
2023-03-02T00:01:54.248Z,102135.00
2023-03-02T00:04:32.026Z,102142.00
2023-03-02T00:07:04.541Z,102147.00
2023-03-02T00:09:32.511Z,102138.00
2023-03-02T00:11:59.383Z,102134.00
2023-03-02T00:14:26.138Z,102138.00
2023-03-02T00:16:52.996Z,102141.00
2023-03-02T00:19:19.706Z,102149.00
2023-03-02T00:21:46.823Z,102150.00
2023-03-02T00:24:15.611Z,102144.00
2023-03-02T00:26:42.512Z,102142.00
2023-03-02T00:29:09.349Z,102140.00
2023-03-02T00:31:38.061Z,102140.00
2023-03-02T00:34:04.941Z,102145.00
2023-03-02T00:36:32.364Z,102148.00
2023-03-02T00:38:59.491Z,102146.00
2023-03-02T00:41:26.209Z,102145.00
2023-03-02T00:43:53.038Z,102144.00
2023-03-02T00:46:23.465Z,102132.00
2023-03-02T00:48:52.053Z,102137.00
2023-03-02T00:51:19.452Z,102125.00
2023-03-02T00:53:46.345Z,102133.00
2023-03-02T00:56:13.369Z,102129.00
2023-03-02T00:58:40.545Z,102137.00
2023-03-02T01:01:13.562Z,102140.00
2023-03-02T01:03:40.404Z,102134.00
2023-03-02T01:06:19.519Z,102150.00
2023-03-02T01:08:47.321Z,102144.00
2023-03-02T01:11:21.939Z,102132.00
2023-03-02T01:13:50.242Z,102143.00
2023-03-02T01:16:18.220Z,102136.00
2023-03-02T01:18:45.444Z,102130.00
2023-03-02T01:21:15.780Z,102128.00
2023-03-02T01:23:42.954Z,102125.00
2023-03-02T01:26:09.908Z,102116.00
2023-03-02T01:28:36.780Z,102118.00
2023-03-02T01:31:04.615Z,102114.00
2023-03-02T01:33:32.882Z,102117.00
2023-03-02T01:36:00.012Z,102114.00
2023-03-02T01:38:27.625Z,102113.00
2023-03-02T01:40:54.434Z,102105.00
2023-03-02T01:43:21.609Z,102111.00
2023-03-02T01:46:03.013Z,102115.00
2023-03-02T01:48:52.703Z,102110.00
2023-03-02T01:51:23.722Z,102103.00
2023-03-02T01:53:56.873Z,102104.00
2023-03-02T01:56:32.393Z,102096.00
2023-03-02T01:59:07.646Z,102107.00
2023-03-02T02:01:39.386Z,102098.00
2023-03-02T02:04:07.525Z,102089.00
2023-03-02T02:06:49.903Z,102089.00
2023-03-02T02:09:20.710Z,102092.00
2023-03-02T02:11:48.062Z,102084.00
2023-03-02T02:14:15.988Z,102079.00
2023-03-02T02:16:42.928Z,102075.00
2023-03-02T02:19:38.161Z,102079.00
2023-03-02T02:22:04.996Z,102078.00
2023-03-02T02:24:45.965Z,102080.00
2023-03-02T02:27:14.567Z,102080.00
2023-03-02T02:29:48.126Z,102072.00
2023-03-02T02:32:30.287Z,102078.00
2023-03-02T02:35:25.044Z,102076.00
2023-03-02T02:37:59.183Z,102073.00
2023-03-02T02:41:07.954Z,102072.00
2023-03-02T02:43:34.980Z,102071.00
2023-03-02T02:46:02.885Z,102082.00
2023-03-02T02:48:32.496Z,102067.00
2023-03-02T02:51:00.581Z,102069.00
2023-03-02T02:53:44.624Z,102069.00
2023-03-02T02:56:14.104Z,102066.00
2023-03-02T02:58:47.251Z,102065.00
2023-03-02T03:01:26.132Z,102068.00
2023-03-02T03:04:01.816Z,102066.00
2023-03-02T03:06:42.429Z,102061.00
2023-03-02T03:09:11.593Z,102074.00
2023-03-02T03:11:44.817Z,102073.00
2023-03-02T03:14:16.039Z,102068.00
2023-03-02T03:16:47.142Z,102068.00
2023-03-02T03:19:33.393Z,102069.00
2023-03-02T03:22:02.291Z,102074.00
2023-03-02T03:24:32.945Z,102069.00
2023-03-02T03:27:01.407Z,102066.00
2023-03-02T03:29:30.070Z,102054.00
2023-03-02T03:31:58.281Z,102065.00
2023-03-02T03:34:26.611Z,102068.00
2023-03-02T03:36:53.933Z,102062.00
2023-03-02T03:39:21.114Z,102054.00
2023-03-02T03:41:47.889Z,102062.00
2023-03-02T03:44:14.648Z,102060.00
2023-03-02T03:46:41.441Z,102052.00
2023-03-02T03:49:08.231Z,102067.00
2023-03-02T03:51:35.589Z,102057.00
2023-03-02T03:54:05.379Z,102049.00
2023-03-02T03:56:38.871Z,102063.00
2023-03-02T03:59:09.746Z,102057.00
2023-03-02T04:02:08.360Z,102061.00
2023-03-02T04:04:36.185Z,102048.00
2023-03-02T04:07:03.393Z,102056.00
2023-03-02T04:09:32.261Z,102053.00
2023-03-02T04:11:59.079Z,102049.00
2023-03-02T04:14:25.977Z,102052.00
2023-03-02T04:16:53.200Z,102047.00
2023-03-02T04:19:20.834Z,102053.00
2023-03-02T04:21:52.510Z,102054.00
2023-03-02T04:24:22.307Z,102049.00
2023-03-02T04:26:50.506Z,102053.00
2023-03-02T04:29:18.554Z,102048.00
2023-03-02T04:31:45.431Z,102050.00
2023-03-02T04:34:12.164Z,102062.00
2023-03-02T04:36:40.516Z,102053.00
2023-03-02T04:39:08.175Z,102064.00
2023-03-02T04:41:35.929Z,102069.00
2023-03-02T04:44:02.915Z,102052.00
2023-03-02T04:46:29.861Z,102068.00
2023-03-02T04:48:56.709Z,102080.00
2023-03-02T04:51:37.504Z,102073.00
2023-03-02T04:54:10.998Z,102075.00
2023-03-02T04:56:37.810Z,102078.00
2023-03-02T04:59:04.623Z,102079.00
2023-03-02T05:01:31.543Z,102074.00
2023-03-02T05:03:58.396Z,102072.00
2023-03-02T05:06:25.277Z,102070.00
2023-03-02T05:08:53.230Z,102062.00
2023-03-02T05:11:23.248Z,102069.00
2023-03-02T05:13:59.922Z,102062.00
2023-03-02T05:16:29.280Z,102059.00
2023-03-02T05:18:56.401Z,102063.00
2023-03-02T05:21:24.481Z,102058.00
2023-03-02T05:23:53.791Z,102051.00
2023-03-02T05:26:20.798Z,102057.00
2023-03-02T05:28:47.630Z,102062.00
2023-03-02T05:31:21.315Z,102062.00
2023-03-02T05:33:48.697Z,102062.00
2023-03-02T05:36:18.995Z,102062.00
2023-03-02T05:38:46.705Z,102071.00
2023-03-02T05:41:13.494Z,102060.00
2023-03-02T05:43:40.646Z,102057.00
2023-03-02T05:46:07.600Z,102060.00
2023-03-02T05:48:34.406Z,102066.00
2023-03-02T05:51:01.608Z,102061.00
2023-03-02T05:53:28.518Z,102053.00
2023-03-02T05:55:55.532Z,102067.00
2023-03-02T05:58:22.373Z,102059.00
2023-03-02T06:00:49.875Z,102056.00
2023-03-02T06:03:17.227Z,102053.00
2023-03-02T06:05:44.582Z,102065.00
2023-03-02T06:08:11.327Z,102066.00
2023-03-02T06:10:38.569Z,102078.00
2023-03-02T06:13:05.333Z,102079.00
2023-03-02T06:15:32.144Z,102080.00
2023-03-02T06:17:58.967Z,102083.00
2023-03-02T06:20:25.928Z,102091.00
2023-03-02T06:22:53.131Z,102085.00
2023-03-02T06:25:23.709Z,102084.00
2023-03-02T06:27:52.389Z,102077.00
2023-03-02T06:30:24.101Z,102074.00
2023-03-02T06:32:51.477Z,102093.00
2023-03-02T06:35:18.899Z,102081.00
2023-03-02T06:37:45.711Z,102078.00
2023-03-02T06:40:13.899Z,102087.00
2023-03-02T06:42:42.683Z,102084.00
2023-03-02T06:45:11.376Z,102091.00
2023-03-02T06:47:38.536Z,102101.00
2023-03-02T06:50:06.499Z,102102.00
2023-03-02T06:52:33.741Z,102092.00
2023-03-02T06:55:00.581Z,102109.00
2023-03-02T06:57:33.700Z,102097.00
2023-03-02T07:00:09.535Z,102097.00
2023-03-02T07:02:37.636Z,102105.00
2023-03-02T07:05:06.495Z,102101.00
2023-03-02T07:07:33.225Z,102098.00
2023-03-02T07:09:59.971Z,102096.00
2023-03-02T07:12:26.943Z,102106.00
2023-03-02T07:14:53.742Z,102099.00
2023-03-02T07:17:20.560Z,102106.00
2023-03-02T07:19:47.440Z,102105.00
2023-03-02T07:22:14.341Z,102096.00
2023-03-02T07:24:41.954Z,102098.00
2023-03-02T07:27:09.732Z,102104.00
2023-03-02T07:29:36.456Z,102100.00
2023-03-02T07:32:04.232Z,102099.00
2023-03-02T07:34:31.022Z,102102.00
2023-03-02T07:36:57.897Z,102102.00
2023-03-02T07:39:24.645Z,102098.00
2023-03-02T07:41:51.356Z,102098.00
2023-03-02T07:44:18.050Z,102114.00
2023-03-02T07:46:44.865Z,102101.00
2023-03-02T07:49:11.580Z,102106.00
2023-03-02T07:51:38.336Z,102107.00
2023-03-02T07:54:05.171Z,102105.00
2023-03-02T07:56:31.987Z,102114.00
2023-03-02T07:58:58.725Z,102111.00
2023-03-02T08:01:25.861Z,102099.00
2023-03-02T08:03:52.831Z,102113.00
2023-03-02T08:06:19.960Z,102097.00
2023-03-02T08:08:49.432Z,102102.00
2023-03-02T08:11:18.400Z,102088.00
2023-03-02T08:13:46.361Z,102100.00
2023-03-02T08:16:15.842Z,102090.00
2023-03-02T08:18:43.773Z,102101.00
2023-03-02T08:21:21.230Z,102106.00
2023-03-02T08:23:49.717Z,102091.00
2023-03-02T08:26:19.506Z,102095.00
2023-03-02T08:28:47.034Z,102093.00
2023-03-02T08:31:14.180Z,102100.00
2023-03-02T08:33:42.179Z,102108.00
2023-03-02T08:36:16.408Z,102102.00
2023-03-02T08:38:44.506Z,102093.00
2023-03-02T08:41:16.285Z,102091.00
2023-03-02T08:43:43.059Z,102106.00
2023-03-02T08:46:12.367Z,102090.00
2023-03-02T08:48:39.615Z,102079.00
2023-03-02T08:51:11.734Z,102097.00
2023-03-02T08:53:42.498Z,102089.00
2023-03-02T08:56:26.067Z,102086.00
2023-03-02T08:58:57.537Z,102080.00
2023-03-02T09:01:29.947Z,102081.00
2023-03-02T09:03:59.947Z,102073.00
2023-03-02T09:06:32.740Z,102074.00
2023-03-02T09:08:59.769Z,102075.00
2023-03-02T09:11:26.997Z,102065.00
2023-03-02T09:13:54.630Z,102066.00
2023-03-02T09:16:21.707Z,102058.00
2023-03-02T09:18:48.644Z,102064.00
2023-03-02T09:21:15.586Z,102054.00
2023-03-02T09:23:42.595Z,102054.00
2023-03-02T09:26:09.689Z,102053.00
2023-03-02T09:28:37.510Z,102053.00
2023-03-02T09:31:07.599Z,102056.00
2023-03-02T09:33:34.803Z,102048.00
2023-03-02T09:36:11.551Z,102050.00
2023-03-02T09:38:38.583Z,102055.00
2023-03-02T09:41:52.377Z,102047.00
2023-03-02T09:44:43.987Z,102056.00
2023-03-02T09:47:50.431Z,102063.00
2023-03-02T09:50:31.616Z,102062.00
2023-03-02T09:53:31.129Z,102062.00
2023-03-02T09:56:02.404Z,102061.00
2023-03-02T09:58:36.202Z,102058.00
2023-03-02T10:01:12.569Z,102067.00
2023-03-02T10:03:50.911Z,102071.00
2023-03-02T10:06:17.787Z,102071.00
2023-03-02T10:08:44.674Z,102060.00
2023-03-02T10:11:24.644Z,102066.00
2023-03-02T10:14:12.849Z,102060.00
2023-03-02T10:17:14.291Z,102063.00
2023-03-02T10:19:49.566Z,102059.00
2023-03-02T10:22:38.022Z,102063.00
2023-03-02T10:25:43.320Z,102055.00
2023-03-02T10:28:35.474Z,102055.00
2023-03-02T10:31:17.165Z,102062.00
2023-03-02T10:33:44.110Z,102055.00
2023-03-02T10:36:40.116Z,102070.00
2023-03-02T10:39:17.924Z,102066.00
2023-03-02T10:42:03.545Z,102066.00
2023-03-02T10:44:38.223Z,102062.00
2023-03-02T10:47:07.627Z,102073.00
2023-03-02T10:49:42.803Z,102066.00
2023-03-02T10:52:15.349Z,102059.00
2023-03-02T10:54:42.570Z,102055.00
2023-03-02T10:57:37.065Z,102053.00
2023-03-02T11:00:23.276Z,102050.00
2023-03-02T11:03:00.588Z,102052.00
2023-03-02T11:05:33.784Z,102049.00
2023-03-02T11:08:09.617Z,102049.00
2023-03-02T11:10:40.814Z,102056.00
2023-03-02T11:13:23.783Z,102050.00
2023-03-02T11:15:54.460Z,102034.00
2023-03-02T11:18:32.884Z,102049.00
2023-03-02T11:21:05.705Z,102034.00
2023-03-02T11:23:59.911Z,102043.00
2023-03-02T11:26:35.540Z,102029.00
2023-03-02T11:29:23.409Z,102023.00
2023-03-02T11:32:11.126Z,102036.00
2023-03-02T11:35:09.184Z,102031.00
2023-03-02T11:37:53.572Z,102028.00
2023-03-02T11:40:34.521Z,102030.00
2023-03-02T11:43:04.923Z,102030.00
2023-03-02T11:45:37.358Z,102014.00
2023-03-02T11:48:33.159Z,102025.00
2023-03-02T11:51:23.241Z,102018.00
2023-03-02T11:54:04.692Z,102015.00
2023-03-02T11:56:36.700Z,102012.00
2023-03-02T11:59:25.757Z,102008.00
2023-03-02T12:01:57.059Z,102010.00
2023-03-02T12:04:32.373Z,102006.00
2023-03-02T12:07:03.904Z,102010.00
2023-03-02T12:09:37.655Z,102006.00
2023-03-02T12:12:48.159Z,101999.00
2023-03-02T12:15:40.835Z,102005.00
2023-03-02T12:18:22.800Z,101997.00
2023-03-02T12:21:12.906Z,101980.00
2023-03-02T12:23:56.902Z,101991.00
2023-03-02T12:26:29.641Z,101983.00
2023-03-02T12:29:22.583Z,101980.00
2023-03-02T12:31:54.322Z,101981.00
2023-03-02T12:34:35.004Z,101980.00
2023-03-02T12:37:26.728Z,101964.00
2023-03-02T12:40:27.781Z,101959.00
2023-03-02T12:43:26.110Z,101964.00
2023-03-02T12:46:33.894Z,101949.00
2023-03-02T12:49:32.980Z,101951.00
2023-03-02T12:52:18.570Z,101954.00
2023-03-02T12:54:45.354Z,101957.00
2023-03-02T12:57:19.570Z,101959.00
2023-03-02T12:59:55.872Z,101952.00
2023-03-02T13:02:28.585Z,101942.00
2023-03-02T13:05:05.158Z,101958.00
2023-03-02T13:07:43.857Z,101943.00
2023-03-02T13:10:29.372Z,101948.00
2023-03-02T13:12:58.443Z,101942.00
2023-03-02T13:15:25.211Z,101944.00
2023-03-02T13:17:59.942Z,101942.00
2023-03-02T13:20:29.860Z,101940.00
2023-03-02T13:22:57.124Z,101946.00
2023-03-02T13:25:28.910Z,101951.00
2023-03-02T13:28:07.434Z,101937.00
2023-03-02T13:30:37.518Z,101940.00
2023-03-02T13:33:25.024Z,101933.00
2023-03-02T13:35:51.906Z,101935.00
2023-03-02T13:38:22.417Z,101937.00
2023-03-02T13:40:53.205Z,101938.00
2023-03-02T13:43:40.930Z,101927.00
2023-03-02T13:46:36.309Z,101937.00
2023-03-02T13:49:10.694Z,101928.00
2023-03-02T13:51:48.194Z,101920.00
2023-03-02T13:54:27.612Z,101919.00
2023-03-02T13:57:00.858Z,101911.00
2023-03-02T13:59:28.293Z,101911.00
2023-03-02T14:01:55.410Z,101911.00
2023-03-02T14:04:23.716Z,101910.00
2023-03-02T14:06:54.336Z,101910.00
2023-03-02T14:09:21.814Z,101904.00
2023-03-02T14:11:53.667Z,101918.00
2023-03-02T14:14:25.061Z,101911.00
2023-03-02T14:16:52.362Z,101897.00
2023-03-02T14:19:20.131Z,101891.00
2023-03-02T14:21:47.974Z,101898.00
2023-03-02T14:24:14.922Z,101892.00
2023-03-02T14:26:49.048Z,101886.00
2023-03-02T14:29:34.429Z,101892.00
2023-03-02T14:32:04.212Z,101881.00
2023-03-02T14:34:30.986Z,101856.00
2023-03-02T14:37:02.659Z,101865.00
2023-03-02T14:39:38.877Z,101860.00
2023-03-02T14:42:11.296Z,101871.00
2023-03-02T14:44:38.489Z,101863.00
2023-03-02T14:47:05.305Z,101876.00
2023-03-02T14:49:32.161Z,101865.00
2023-03-02T14:52:20.655Z,101851.00
2023-03-02T14:54:54.240Z,101864.00
2023-03-02T14:57:25.394Z,101854.00
2023-03-02T14:59:53.991Z,101841.00
2023-03-02T15:02:26.197Z,101846.00
2023-03-02T15:04:56.820Z,101848.00
2023-03-02T15:07:28.798Z,101844.00
2023-03-02T15:09:57.521Z,101841.00
2023-03-02T15:12:24.434Z,101842.00
2023-03-02T15:14:51.464Z,101840.00
2023-03-02T15:17:18.216Z,101849.00
2023-03-02T15:19:44.985Z,101843.00
2023-03-02T15:22:13.557Z,101842.00
2023-03-02T15:24:40.336Z,101847.00
2023-03-02T15:27:07.688Z,101846.00
2023-03-02T15:29:34.593Z,101853.00
2023-03-02T15:32:01.495Z,101837.00
2023-03-02T15:34:28.326Z,101839.00
2023-03-02T15:36:55.176Z,101834.00
2023-03-02T15:39:21.928Z,101836.00
2023-03-02T15:41:48.656Z,101838.00
2023-03-02T15:44:22.414Z,101832.00
2023-03-02T15:46:51.712Z,101830.00
2023-03-02T15:49:22.761Z,101845.00
2023-03-02T15:51:51.922Z,101837.00
2023-03-02T15:54:19.227Z,101824.00
2023-03-02T15:56:49.682Z,101831.00
2023-03-02T15:59:16.499Z,101832.00
2023-03-02T16:01:44.223Z,101828.00
2023-03-02T16:04:11.123Z,101834.00
2023-03-02T16:06:38.826Z,101830.00
2023-03-02T16:09:05.836Z,101825.00
2023-03-02T16:11:32.730Z,101830.00
2023-03-02T16:13:59.584Z,101830.00
2023-03-02T16:16:26.494Z,101817.00
2023-03-02T16:18:56.138Z,101817.00
2023-03-02T16:21:25.874Z,101827.00
2023-03-02T16:23:53.625Z,101825.00
2023-03-02T16:26:22.336Z,101820.00
2023-03-02T16:28:49.435Z,101830.00
2023-03-02T16:31:20.844Z,101822.00
2023-03-02T16:33:50.171Z,101820.00
2023-03-02T16:36:17.011Z,101822.00
2023-03-02T16:38:43.734Z,101820.00
2023-03-02T16:41:21.541Z,101818.00
2023-03-02T16:43:55.552Z,101825.00
2023-03-02T16:46:23.623Z,101825.00
2023-03-02T16:48:50.921Z,101829.00
2023-03-02T16:51:18.714Z,101825.00
2023-03-02T16:53:46.067Z,101832.00
2023-03-02T16:56:13.770Z,101827.00
2023-03-02T16:58:42.021Z,101827.00
2023-03-02T17:01:13.556Z,101833.00
2023-03-02T17:03:41.609Z,101824.00
2023-03-02T17:06:11.532Z,101838.00
2023-03-02T17:08:38.552Z,101845.00
2023-03-02T17:11:06.017Z,101836.00
2023-03-02T17:13:32.806Z,101839.00
2023-03-02T17:15:59.796Z,101835.00
2023-03-02T17:18:28.111Z,101837.00
2023-03-02T17:20:58.045Z,101833.00
2023-03-02T17:23:27.076Z,101849.00
2023-03-02T17:25:55.519Z,101852.00
2023-03-02T17:28:22.375Z,101842.00
2023-03-02T17:30:49.462Z,101847.00
2023-03-02T17:33:17.108Z,101856.00
2023-03-02T17:35:43.916Z,101844.00
2023-03-02T17:38:11.499Z,101841.00
2023-03-02T17:40:38.474Z,101843.00
2023-03-02T17:43:05.272Z,101835.00
2023-03-02T17:45:32.074Z,101846.00
2023-03-02T17:47:59.108Z,101842.00
2023-03-02T17:50:27.247Z,101842.00
2023-03-02T17:52:54.344Z,101849.00
2023-03-02T17:55:21.161Z,101846.00
2023-03-02T17:57:47.969Z,101861.00
2023-03-02T18:00:19.638Z,101854.00
2023-03-02T18:02:46.443Z,101864.00
2023-03-02T18:05:13.265Z,101857.00
2023-03-02T18:07:40.068Z,101865.00
2023-03-02T18:10:07.825Z,101859.00
2023-03-02T18:12:35.221Z,101862.00
2023-03-02T18:15:02.091Z,101863.00
2023-03-02T18:17:29.128Z,101859.00
2023-03-02T18:19:56.291Z,101865.00
2023-03-02T18:22:23.096Z,101876.00
2023-03-02T18:24:51.159Z,101880.00
2023-03-02T18:27:17.940Z,101877.00
2023-03-02T18:29:44.777Z,101870.00
2023-03-02T18:32:12.103Z,101876.00
2023-03-02T18:34:38.981Z,101876.00
2023-03-02T18:37:05.991Z,101871.00
2023-03-02T18:39:32.791Z,101870.00
2023-03-02T18:41:59.751Z,101865.00
2023-03-02T18:44:28.367Z,101870.00
2023-03-02T18:46:55.794Z,101865.00
2023-03-02T18:49:23.406Z,101879.00
2023-03-02T18:51:50.622Z,101872.00
2023-03-02T18:54:17.359Z,101865.00
2023-03-02T18:56:44.583Z,101864.00
2023-03-02T18:59:12.164Z,101873.00
2023-03-02T19:01:42.113Z,101871.00
2023-03-02T19:04:08.939Z,101857.00
2023-03-02T19:06:35.953Z,101865.00
2023-03-02T19:09:02.745Z,101857.00
2023-03-02T19:11:29.539Z,101849.00
2023-03-02T19:13:56.302Z,101859.00
2023-03-02T19:16:23.071Z,101851.00
2023-03-02T19:18:50.139Z,101857.00
2023-03-02T19:21:17.503Z,101850.00
2023-03-02T19:23:46.429Z,101856.00
2023-03-02T19:26:13.709Z,101859.00
2023-03-02T19:28:40.611Z,101857.00
2023-03-02T19:31:09.374Z,101856.00
2023-03-02T19:33:36.446Z,101861.00
2023-03-02T19:36:08.013Z,101854.00
2023-03-02T19:38:40.621Z,101862.00
2023-03-02T19:41:11.125Z,101855.00
2023-03-02T19:43:38.067Z,101865.00
2023-03-02T19:46:05.245Z,101874.00
2023-03-02T19:48:33.991Z,101865.00
2023-03-02T19:51:00.772Z,101865.00
2023-03-02T19:53:27.495Z,101869.00
2023-03-02T19:55:59.808Z,101864.00
2023-03-02T19:58:28.252Z,101859.00
2023-03-02T20:00:55.392Z,101859.00
2023-03-02T20:03:22.231Z,101858.00
2023-03-02T20:05:49.465Z,101872.00
2023-03-02T20:08:17.075Z,101861.00
2023-03-02T20:10:49.549Z,101873.00
2023-03-02T20:13:17.600Z,101872.00
2023-03-02T20:15:46.975Z,101865.00
2023-03-02T20:18:19.976Z,101884.00
2023-03-02T20:20:48.407Z,101880.00
2023-03-02T20:23:16.139Z,101882.00
2023-03-02T20:25:43.461Z,101880.00
2023-03-02T20:28:13.660Z,101878.00
2023-03-02T20:30:51.909Z,101893.00
2023-03-02T20:33:24.048Z,101902.00
2023-03-02T20:35:55.155Z,101906.00
2023-03-02T20:38:32.458Z,101898.00
2023-03-02T20:41:01.263Z,101887.00
2023-03-02T20:43:29.144Z,101894.00
2023-03-02T20:45:59.403Z,101899.00
2023-03-02T20:48:27.299Z,101887.00
2023-03-02T20:50:54.884Z,101892.00
2023-03-02T20:53:22.142Z,101898.00
2023-03-02T20:55:49.273Z,101895.00
2023-03-02T20:58:16.258Z,101898.00
2023-03-02T21:00:43.637Z,101905.00
2023-03-02T21:03:10.481Z,101895.00
2023-03-02T21:05:40.690Z,101897.00
2023-03-02T21:08:12.564Z,101890.00
2023-03-02T21:10:42.923Z,101896.00
2023-03-02T21:13:11.812Z,101896.00
2023-03-02T21:15:40.953Z,101901.00
2023-03-02T21:18:07.847Z,101896.00
2023-03-02T21:20:36.032Z,101889.00
2023-03-02T21:23:04.044Z,101883.00
2023-03-02T21:25:31.431Z,101883.00
2023-03-02T21:27:58.786Z,101892.00
2023-03-02T21:30:31.006Z,101896.00
2023-03-02T21:33:02.028Z,101884.00
2023-03-02T21:35:29.559Z,101891.00
2023-03-02T21:38:04.704Z,101901.00
2023-03-02T21:40:40.714Z,101893.00
2023-03-02T21:43:13.252Z,101897.00
2023-03-02T21:45:41.405Z,101884.00
2023-03-02T21:48:08.603Z,101889.00
2023-03-02T21:50:38.560Z,101881.00
2023-03-02T21:53:06.536Z,101880.00
2023-03-02T21:55:34.215Z,101881.00
2023-03-02T21:58:01.005Z,101875.00
2023-03-02T22:00:38.684Z,101876.00
2023-03-02T22:03:06.907Z,101881.00
2023-03-02T22:05:34.796Z,101881.00
2023-03-02T22:08:01.525Z,101879.00
2023-03-02T22:10:41.824Z,101873.00
2023-03-02T22:13:23.681Z,101874.00
2023-03-02T22:15:58.165Z,101859.00
2023-03-02T22:18:27.057Z,101871.00
2023-03-02T22:20:53.815Z,101872.00
2023-03-02T22:23:27.213Z,101873.00
2023-03-02T22:26:02.049Z,101873.00
2023-03-02T22:28:29.011Z,101873.00
2023-03-02T22:31:00.452Z,101872.00
2023-03-02T22:33:29.460Z,101873.00
2023-03-02T22:36:22.512Z,101870.00
2023-03-02T22:38:49.300Z,101869.00
2023-03-02T22:41:20.802Z,101848.00
2023-03-02T22:43:49.391Z,101851.00
2023-03-02T22:46:20.560Z,101839.00
2023-03-02T22:48:52.587Z,101840.00
2023-03-02T22:51:27.698Z,101835.00
2023-03-02T22:54:00.433Z,101852.00
2023-03-02T22:56:42.573Z,101849.00
2023-03-02T22:59:26.972Z,101848.00
2023-03-02T23:02:13.992Z,101843.00
2023-03-02T23:04:50.097Z,101845.00
2023-03-02T23:07:22.187Z,101841.00
2023-03-02T23:09:49.243Z,101821.00
2023-03-02T23:12:26.667Z,101819.00
2023-03-02T23:15:00.004Z,101821.00
2023-03-02T23:17:39.570Z,101822.00
2023-03-02T23:20:11.552Z,101823.00
2023-03-02T23:22:39.122Z,101817.00
2023-03-02T23:25:09.275Z,101795.00
2023-03-02T23:27:36.280Z,101807.00
2023-03-02T23:30:04.482Z,101792.00
2023-03-02T23:32:31.362Z,101799.00
2023-03-02T23:34:58.195Z,101807.00
2023-03-02T23:37:25.029Z,101808.00
2023-03-02T23:39:55.153Z,101816.00
2023-03-02T23:42:21.873Z,101824.00
2023-03-02T23:44:49.143Z,101823.00
2023-03-02T23:47:16.455Z,101825.00
2023-03-02T23:49:43.668Z,101824.00
2023-03-02T23:52:10.414Z,101822.00
2023-03-02T23:54:39.048Z,101814.00
2023-03-02T23:57:05.879Z,101822.00
2023-03-02T23:59:32.612Z,101830.00
